Time;durP1;ratioP1;P1;durP2;ratioP2;P2;SDS_P1;SDS_P2;PMS_P1;PMS_P2;Temp;Humidity;BMP_temperature;BMP_pressure;BME280_temperature;BME280_humidity;BME280_pressure;Samples;Min_cycle;Max_cycle;Signal;HPM_P1;HPM_P2
2022/04/14 00:01:22;;;;;;;8.10;5.13;;;13.70;99.90;;;;;;5078648;28;20048;-74
2022/04/14 00:03:50;;;;;;;8.05;5.43;;;13.60;99.90;;;;;;5063555;28;20563;-74
2022/04/14 00:06:17;;;;;;;7.65;5.25;;;13.60;99.90;;;;;;5040614;28;20102;-77
2022/04/14 00:08:45;;;;;;;8.00;6.05;;;13.60;99.90;;;;;;5079166;28;20105;-73
2022/04/14 00:11:13;;;;;;;7.95;5.15;;;13.60;99.90;;;;;;5065341;28;20152;-73
2022/04/14 00:13:41;;;;;;;7.72;5.07;;;13.70;99.90;;;;;;5046723;28;20444;-73
2022/04/14 00:16:08;;;;;;;7.43;5.53;;;13.70;99.90;;;;;;5074035;28;20044;-73
2022/04/14 00:18:36;;;;;;;6.63;4.32;;;13.70;99.90;;;;;;5081036;28;20068;-74
2022/04/14 00:21:03;;;;;;;6.97;4.88;;;13.70;99.90;;;;;;5059557;28;20114;-74
2022/04/14 00:23:31;;;;;;;10.52;5.32;;;13.70;99.90;;;;;;5069290;28;20100;-74
2022/04/14 00:25:59;;;;;;;5.50;4.38;;;13.70;99.90;;;;;;5055372;28;20041;-74
2022/04/14 00:28:26;;;;;;;7.90;4.85;;;13.70;99.90;;;;;;5062662;28;20059;-74
2022/04/14 00:30:54;;;;;;;9.35;5.53;;;13.70;99.90;;;;;;5062528;28;20052;-74
2022/04/14 00:33:21;;;;;;;11.13;5.43;;;13.60;99.90;;;;;;5077911;28;20585;-75
2022/04/14 00:35:49;;;;;;;8.55;5.72;;;13.50;99.90;;;;;;5036195;28;20087;-75
2022/04/14 00:38:16;;;;;;;7.57;5.30;;;13.40;99.90;;;;;;5050034;28;20099;-77
2022/04/14 00:40:44;;;;;;;7.55;5.07;;;13.40;99.90;;;;;;5016275;28;20122;-74
2022/04/14 00:43:12;;;;;;;8.93;5.22;;;13.30;99.90;;;;;;5050997;28;20053;-74
2022/04/14 00:45:39;;;;;;;7.90;4.85;;;13.30;99.90;;;;;;5016772;28;20055;-74
2022/04/14 00:48:07;;;;;;;8.07;5.47;;;13.20;99.90;;;;;;5050031;28;20044;-75
2022/04/14 00:50:35;;;;;;;9.27;5.85;;;13.20;99.90;;;;;;5065474;28;20522;-74
2022/04/14 00:53:04;;;;;;;12.88;6.60;;;13.30;99.90;;;;;;5053694;28;20059;-74
2022/04/14 00:55:32;;;;;;;12.98;6.32;;;13.20;99.90;;;;;;5051933;28;20056;-76
2022/04/14 00:58:00;;;;;;;11.88;5.97;;;13.30;99.90;;;;;;5034255;28;20063;-76
2022/04/14 01:00:27;;;;;;;9.93;5.70;;;13.30;99.90;;;;;;5048597;28;20045;-77
2022/04/14 01:02:55;;;;;;;8.43;6.13;;;13.30;99.90;;;;;;5053556;28;20506;-74
2022/04/14 01:05:25;;;;;;;8.50;5.78;;;13.20;99.90;;;;;;5088806;28;20040;-74
2022/04/14 01:07:54;;;;;;;9.95;7.15;;;13.20;99.90;;;;;;5071421;28;20047;-74
2022/04/14 01:10:25;;;;;;;9.88;6.43;;;13.10;99.90;;;;;;5089998;28;20136;-74
2022/04/14 01:12:53;;;;;;;10.82;6.55;;;13.10;99.90;;;;;;5073079;28;20036;-74
2022/04/14 01:15:21;;;;;;;10.15;6.30;;;13.00;99.90;;;;;;5056601;28;20497;-78
2022/04/14 01:17:48;;;;;;;8.82;6.18;;;13.00;99.90;;;;;;5056046;28;20086;-75
2022/04/14 01:20:16;;;;;;;9.52;6.15;;;12.90;99.90;;;;;;5039638;28;20112;-74
2022/04/14 01:22:57;;;;;;;13.20;6.70;;;12.90;99.90;;;;;;5072873;28;20036;-74
2022/04/14 01:25:26;;;;;;;9.60;6.25;;;12.90;99.90;;;;;;5056533;28;20413;-74
2022/04/14 01:27:54;;;;;;;11.68;7.00;;;12.90;99.90;;;;;;5056138;28;20055;-74
2022/04/14 01:30:22;;;;;;;13.85;6.45;;;13.00;99.90;;;;;;5072954;28;20420;-75
2022/04/14 01:32:49;;;;;;;6.88;5.60;;;13.00;99.90;;;;;;5072512;28;20040;-74
2022/04/14 01:35:18;;;;;;;8.32;6.10;;;12.90;99.90;;;;;;5072270;28;20390;-74
2022/04/14 01:37:45;;;;;;;15.25;6.03;;;13.00;99.90;;;;;;5056230;28;20051;-75
2022/04/14 01:40:13;;;;;;;8.55;5.03;;;13.00;99.90;;;;;;5056177;28;20044;-74
2022/04/14 01:42:40;;;;;;;6.28;4.45;;;13.00;99.90;;;;;;5039068;28;20150;-74
2022/04/14 01:45:10;;;;;;;8.52;5.45;;;13.00;99.90;;;;;;5039465;28;20070;-74
2022/04/14 01:47:42;;;;;;;7.90;5.30;;;13.10;99.90;;;;;;5057110;28;20135;-75
2022/04/14 01:50:13;;;;;;;6.80;4.53;;;13.10;99.90;;;;;;5052512;28;20045;-77
2022/04/14 01:52:42;;;;;;;6.43;4.82;;;13.10;99.90;;;;;;5051816;28;20059;-75
2022/04/14 01:55:10;;;;;;;6.90;4.38;;;13.20;99.90;;;;;;5052496;28;20056;-75
2022/04/14 01:57:38;;;;;;;6.65;4.90;;;13.20;99.90;;;;;;5036027;28;20044;-75
2022/04/14 02:00:07;;;;;;;8.20;4.95;;;13.20;99.90;;;;;;5035751;28;20498;-75
2022/04/14 02:02:35;;;;;;;5.97;4.22;;;13.20;99.90;;;;;;5052185;28;20074;-75
2022/04/14 02:05:04;;;;;;;5.95;4.15;;;13.20;99.90;;;;;;5035784;28;20045;-74
2022/04/14 02:07:32;;;;;;;4.90;3.15;;;13.30;99.90;;;;;;5055585;28;20048;-74
2022/04/14 02:09:59;;;;;;;5.82;3.53;;;13.20;99.90;;;;;;5039881;28;20049;-74
2022/04/14 02:12:27;;;;;;;7.22;3.90;;;13.20;99.90;;;;;;5056177;28;20071;-79
2022/04/14 02:14:54;;;;;;;11.52;3.53;;;13.20;99.90;;;;;;5023601;28;20471;-75
2022/04/14 02:17:22;;;;;;;10.25;3.85;;;13.20;99.90;;;;;;5039569;28;20037;-75
2022/04/14 02:19:49;;;;;;;8.45;3.97;;;13.20;99.90;;;;;;5039430;28;20052;-76
2022/04/14 02:22:18;;;;;;;5.40;3.70;;;13.20;99.90;;;;;;5022920;28;20117;-75
2022/04/14 02:24:46;;;;;;;7.10;4.28;;;13.10;99.90;;;;;;5022375;28;20044;-75
2022/04/14 02:27:13;;;;;;;7.50;4.10;;;13.00;99.90;;;;;;5022876;28;20060;-75
2022/04/14 02:29:41;;;;;;;6.63;4.20;;;12.90;99.90;;;;;;5039451;28;20053;-75
2022/04/14 02:32:09;;;;;;;8.88;4.38;;;12.90;99.90;;;;;;5054995;28;20044;-74
2022/04/14 02:34:37;;;;;;;6.13;4.22;;;12.80;99.90;;;;;;5055308;28;20083;-74
2022/04/14 02:37:04;;;;;;;11.20;4.22;;;12.70;99.90;;;;;;5022893;28;20591;-75
2022/04/14 02:39:32;;;;;;;5.78;4.18;;;12.60;99.90;;;;;;5052755;28;20086;-74
2022/04/14 02:41:59;;;;;;;6.07;3.78;;;12.50;99.90;;;;;;5039021;28;20049;-74
2022/04/14 02:44:27;;;;;;;8.43;4.43;;;12.50;99.90;;;;;;5038930;28;20456;-79
2022/04/14 02:46:54;;;;;;;6.07;3.88;;;12.50;99.90;;;;;;5055430;28;20055;-74
2022/04/14 02:49:23;;;;;;;11.60;5.25;;;12.40;99.90;;;;;;5055788;28;20044;-75
2022/04/14 02:51:50;;;;;;;6.10;3.80;;;12.30;99.90;;;;;;5055796;28;20041;-74
2022/04/14 02:54:18;;;;;;;7.05;5.05;;;12.30;99.90;;;;;;5055260;28;20040;-74
2022/04/14 02:56:46;;;;;;;8.18;4.30;;;12.30;99.90;;;;;;5054825;28;20056;-75
2022/04/14 02:59:13;;;;;;;8.45;5.00;;;12.20;99.90;;;;;;5055179;28;20482;-74
2022/04/14 03:01:41;;;;;;;8.02;5.57;;;12.20;99.90;;;;;;5059956;28;20041;-74
2022/04/14 03:04:08;;;;;;;7.75;5.20;;;12.30;99.90;;;;;;5034148;28;20056;-75
2022/04/14 03:06:36;;;;;;;8.20;5.53;;;12.20;99.90;;;;;;5038093;28;20052;-75
2022/04/14 03:09:03;;;;;;;8.57;5.55;;;12.10;99.90;;;;;;5055125;28;20143;-74
2022/04/14 03:11:31;;;;;;;16.42;5.97;;;12.10;99.90;;;;;;5055523;28;20498;-74
2022/04/14 03:13:59;;;;;;;6.72;4.63;;;12.10;99.90;;;;;;5055170;28;20094;-75
2022/04/14 03:16:26;;;;;;;7.53;4.80;;;12.10;99.90;;;;;;5055187;28;20174;-75
2022/04/14 03:18:54;;;;;;;8.77;5.80;;;12.10;99.90;;;;;;5038340;28;20040;-74
2022/04/14 03:21:21;;;;;;;11.77;5.65;;;12.00;99.90;;;;;;5055104;28;20094;-74
2022/04/14 03:23:51;;;;;;;6.20;4.38;;;12.00;99.90;;;;;;5021639;28;20088;-75
2022/04/14 03:26:19;;;;;;;6.68;5.18;;;12.00;99.90;;;;;;5038067;28;20102;-74
2022/04/14 03:28:47;;;;;;;10.18;5.70;;;12.10;99.90;;;;;;5037913;28;20410;-74
2022/04/14 03:31:14;;;;;;;10.52;5.38;;;12.10;99.90;;;;;;5037812;28;20052;-75
2022/04/14 03:33:42;;;;;;;9.40;5.30;;;12.00;99.90;;;;;;5072750;28;20123;-76
2022/04/14 03:36:09;;;;;;;8.73;4.47;;;12.00;99.90;;;;;;5073072;28;20137;-75
2022/04/14 03:38:37;;;;;;;9.35;5.75;;;12.00;99.90;;;;;;5072212;28;20075;-75
2022/04/14 03:41:06;;;;;;;6.90;5.18;;;12.10;99.90;;;;;;5037809;28;20071;-76
2022/04/14 03:43:34;;;;;;;6.53;4.35;;;12.00;99.90;;;;;;5038243;28;20083;-75
2022/04/14 03:46:03;;;;;;;7.93;5.10;;;12.00;99.90;;;;;;5037740;28;20052;-74
2022/04/14 03:48:31;;;;;;;9.60;6.00;;;12.10;99.90;;;;;;5037814;28;20433;-75
2022/04/14 03:50:58;;;;;;;6.32;4.53;;;12.10;99.90;;;;;;5054054;28;20037;-75
2022/04/14 03:53:26;;;;;;;6.18;4.28;;;12.10;99.90;;;;;;5054572;28;20057;-75
2022/04/14 03:55:54;;;;;;;7.32;4.47;;;12.10;99.90;;;;;;5037604;28;20565;-75
2022/04/14 03:58:21;;;;;;;6.75;4.50;;;12.10;99.90;;;;;;5054154;28;20037;-75
2022/04/14 04:00:49;;;;;;;8.77;4.80;;;12.10;99.90;;;;;;5054747;28;20813;-77
2022/04/14 04:03:17;;;;;;;8.70;4.60;;;12.00;99.90;;;;;;5067973;28;20063;-76
2022/04/14 04:05:44;;;;;;;6.05;5.30;;;12.00;99.90;;;;;;5063452;28;20052;-74
2022/04/14 04:08:12;;;;;;;7.25;5.18;;;12.10;99.90;;;;;;5073059;28;20036;-75
2022/04/14 04:10:40;;;;;;;7.03;3.90;;;12.10;99.90;;;;;;5041258;28;20048;-75
2022/04/14 04:13:07;;;;;;;5.95;4.45;;;12.00;99.90;;;;;;5057724;28;20128;-75
2022/04/14 04:15:35;;;;;;;6.40;4.43;;;12.00;99.90;;;;;;5040917;28;20126;-75
2022/04/14 04:18:05;;;;;;;9.15;4.57;;;12.00;99.90;;;;;;5073999;28;20115;-75
2022/04/14 04:20:33;;;;;;;8.23;4.75;;;12.00;99.90;;;;;;5073849;28;20050;-75
2022/04/14 04:23:05;;;;;;;6.05;4.40;;;12.10;99.90;;;;;;5092005;28;20052;-75
2022/04/14 04:25:33;;;;;;;5.43;4.63;;;12.20;99.90;;;;;;5089479;28;20505;-75
2022/04/14 04:28:01;;;;;;;6.20;4.72;;;12.30;99.90;;;;;;5091864;28;20077;-75
2022/04/14 04:30:29;;;;;;;6.80;3.90;;;12.40;99.90;;;;;;5056621;28;20426;-75
2022/04/14 04:32:56;;;;;;;8.35;4.65;;;12.40;99.90;;;;;;5057178;28;20435;-74
2022/04/14 04:35:24;;;;;;;7.55;4.50;;;12.50;99.90;;;;;;5040516;28;20415;-75
2022/04/14 04:37:52;;;;;;;8.80;5.38;;;12.60;99.90;;;;;;5057176;28;20043;-75
2022/04/14 04:40:20;;;;;;;10.75;5.13;;;12.70;99.90;;;;;;5057223;28;20037;-75
2022/04/14 04:42:48;;;;;;;8.32;4.95;;;12.80;99.90;;;;;;5057339;28;20131;-74
2022/04/14 04:45:16;;;;;;;8.52;4.60;;;13.00;99.90;;;;;;5057016;28;20055;-77
2022/04/14 04:47:43;;;;;;;6.18;4.15;;;13.10;99.90;;;;;;5056496;28;20056;-75
2022/04/14 04:50:11;;;;;;;6.43;3.75;;;13.30;99.90;;;;;;5056532;28;20420;-75
2022/04/14 04:52:39;;;;;;;7.15;4.13;;;13.50;99.90;;;;;;5073169;28;20040;-76
2022/04/14 04:55:07;;;;;;;8.88;5.03;;;13.60;99.90;;;;;;5040148;28;20040;-75
2022/04/14 04:57:35;;;;;;;12.20;4.22;;;13.80;99.90;;;;;;5073383;28;20149;-75
2022/04/14 05:00:04;;;;;;;6.95;3.90;;;13.90;99.90;;;;;;5039863;28;20049;-74
2022/04/14 05:02:32;;;;;;;5.70;3.60;;;14.00;99.90;;;;;;5072800;28;20086;-75
2022/04/14 05:04:59;;;;;;;5.22;3.17;;;14.10;99.90;;;;;;5053064;28;20056;-74
2022/04/14 05:07:27;;;;;;;7.93;4.13;;;14.20;99.90;;;;;;5052781;28;20111;-74
2022/04/14 05:09:55;;;;;;;8.15;3.75;;;14.20;99.90;;;;;;5069710;28;20036;-75
2022/04/14 05:12:22;;;;;;;5.75;3.47;;;14.20;99.90;;;;;;5052837;28;20379;-74
2022/04/14 05:14:50;;;;;;;6.85;4.32;;;14.20;99.90;;;;;;5069204;28;20098;-76
2022/04/14 05:17:20;;;;;;;7.78;4.78;;;14.10;99.90;;;;;;5050243;28;20122;-75
2022/04/14 05:19:48;;;;;;;7.55;4.35;;;14.30;99.90;;;;;;5069726;28;20090;-75
2022/04/14 05:22:15;;;;;;;5.70;3.78;;;14.40;99.90;;;;;;5053155;28;20044;-75
2022/04/14 05:24:43;;;;;;;9.15;4.10;;;14.50;99.90;;;;;;5069313;28;20497;-76
2022/04/14 05:27:10;;;;;;;5.47;3.40;;;14.70;99.90;;;;;;5068765;28;20051;-75
2022/04/14 05:29:41;;;;;;;6.07;4.05;;;14.90;99.90;;;;;;5052824;28;20048;-74
2022/04/14 05:32:09;;;;;;;7.18;4.30;;;14.90;99.90;;;;;;5052618;28;20056;-74
2022/04/14 05:34:36;;;;;;;5.78;3.55;;;15.10;99.90;;;;;;5069167;28;20502;-75
2022/04/14 05:37:04;;;;;;;5.25;3.13;;;15.20;99.90;;;;;;5036029;28;20094;-74
2022/04/14 05:39:32;;;;;;;6.18;3.60;;;15.30;99.90;;;;;;5052323;28;20485;-75
2022/04/14 05:42:00;;;;;;;3.88;3.05;;;15.50;99.90;;;;;;5051615;28;20045;-74
2022/04/14 05:44:27;;;;;;;5.13;3.47;;;15.60;99.90;;;;;;5052212;28;20094;-77
2022/04/14 05:46:55;;;;;;;7.13;3.17;;;15.80;99.90;;;;;;5068849;28;20075;-77
2022/04/14 05:49:23;;;;;;;5.00;2.85;;;15.90;99.90;;;;;;5069136;28;20451;-74
2022/04/14 05:51:50;;;;;;;6.10;2.85;;;15.90;99.90;;;;;;5069013;28;20075;-74
2022/04/14 05:54:18;;;;;;;4.57;2.33;;;16.10;99.90;;;;;;5052307;28;20079;-75
2022/04/14 05:56:46;;;;;;;5.93;2.90;;;16.40;99.90;;;;;;5052858;28;20631;-74
2022/04/14 05:59:16;;;;;;;4.68;2.72;;;16.50;99.90;;;;;;5052188;28;20509;-76
2022/04/14 06:01:45;;;;;;;3.72;2.28;;;16.70;99.90;;;;;;5069132;28;20064;-75
2022/04/14 06:04:13;;;;;;;3.97;2.38;;;16.80;99.90;;;;;;5052039;28;20056;-74
2022/04/14 06:06:41;;;;;;;7.30;3.03;;;17.00;99.90;;;;;;5068634;28;20072;-74
2022/04/14 06:09:09;;;;;;;4.38;2.80;;;17.10;99.90;;;;;;5052128;28;20523;-74
2022/04/14 06:11:36;;;;;;;5.20;2.60;;;17.10;99.70;;;;;;5069932;28;20037;-74
2022/04/14 06:14:04;;;;;;;3.25;2.20;;;17.30;99.60;;;;;;5069167;28;20072;-75
2022/04/14 06:16:32;;;;;;;4.38;2.22;;;17.40;99.70;;;;;;5051676;28;20045;-75
2022/04/14 06:18:59;;;;;;;9.27;2.47;;;17.60;99.40;;;;;;5035586;28;20056;-75
2022/04/14 06:21:27;;;;;;;10.90;2.85;;;17.70;98.80;;;;;;5035662;28;20056;-76
2022/04/14 06:23:56;;;;;;;3.78;2.17;;;17.70;98.70;;;;;;5068973;28;20072;-74
2022/04/14 06:26:23;;;;;;;3.88;2.55;;;17.90;98.70;;;;;;5068692;28;20049;-74
2022/04/14 06:28:51;;;;;;;4.47;2.70;;;18.00;98.60;;;;;;5068518;28;20102;-74
2022/04/14 06:31:19;;;;;;;5.00;2.83;;;18.20;98.30;;;;;;5068849;28;20090;-74
2022/04/14 06:33:46;;;;;;;5.07;2.35;;;18.40;98.20;;;;;;5052014;28;20777;-74
2022/04/14 06:36:14;;;;;;;4.38;2.42;;;18.40;97.70;;;;;;5068479;28;20094;-74
2022/04/14 06:38:41;;;;;;;4.05;2.83;;;18.60;97.60;;;;;;5069420;28;20128;-74
2022/04/14 06:41:09;;;;;;;5.18;2.60;;;18.80;97.40;;;;;;5069356;28;20048;-75
2022/04/14 06:43:37;;;;;;;8.13;3.28;;;19.00;97.00;;;;;;5035916;28;20573;-74
2022/04/14 06:46:04;;;;;;;4.93;3.10;;;18.80;96.30;;;;;;5035255;28;20080;-75
2022/04/14 06:48:32;;;;;;;5.80;3.40;;;18.80;96.70;;;;;;5068748;28;20131;-75
2022/04/14 06:51:00;;;;;;;4.55;2.40;;;18.90;96.70;;;;;;5035499;28;20181;-74
2022/04/14 06:53:28;;;;;;;4.80;2.55;;;19.10;96.80;;;;;;5068438;28;20063;-74
2022/04/14 06:55:56;;;;;;;5.97;3.00;;;19.30;96.70;;;;;;5072213;28;20076;-75
2022/04/14 06:58:24;;;;;;;5.78;2.70;;;19.40;96.20;;;;;;5039372;28;20394;-74
2022/04/14 07:00:51;;;;;;;6.72;2.78;;;19.50;96.00;;;;;;5038628;28;20160;-75
2022/04/14 07:03:22;;;;;;;5.05;3.10;;;19.50;95.90;;;;;;5071765;28;20052;-75
2022/04/14 07:05:54;;;;;;;6.68;3.05;;;19.30;95.80;;;;;;5055162;28;20075;-75
2022/04/14 07:08:24;;;;;;;4.53;3.00;;;19.10;95.80;;;;;;5055074;28;20037;-76
2022/04/14 07:10:52;;;;;;;4.70;2.40;;;18.60;96.30;;;;;;5055532;28;20133;-74
2022/04/14 07:13:20;;;;;;;3.70;2.50;;;18.20;96.90;;;;;;5055641;28;20048;-74
2022/04/14 07:15:48;;;;;;;3.40;2.10;;;18.10;97.30;;;;;;5037897;28;20048;-75
2022/04/14 07:18:15;;;;;;;5.22;2.38;;;18.10;97.60;;;;;;5070619;28;20510;-74
2022/04/14 07:20:46;;;;;;;5.55;2.53;;;18.10;97.50;;;;;;5070877;28;20505;-74
2022/04/14 07:23:14;;;;;;;4.07;2.00;;;17.80;97.40;;;;;;5055183;28;20048;-74
2022/04/14 07:25:42;;;;;;;3.58;1.88;;;18.00;97.70;;;;;;5038490;28;20059;-76
2022/04/14 07:28:09;;;;;;;4.25;2.00;;;18.20;97.30;;;;;;5070357;28;20041;-75
2022/04/14 07:30:39;;;;;;;4.60;1.98;;;18.00;97.20;;;;;;5054767;28;20052;-74
2022/04/14 07:33:07;;;;;;;7.80;2.53;;;18.10;97.40;;;;;;5038061;28;20413;-75
2022/04/14 07:35:35;;;;;;;3.80;1.60;;;18.20;96.70;;;;;;5054194;28;20044;-74
2022/04/14 07:38:03;;;;;;;3.60;1.90;;;18.40;96.00;;;;;;5072526;28;20068;-74
2022/04/14 07:40:31;;;;;;;3.30;1.80;;;18.50;95.40;;;;;;5054364;28;20049;-76
2022/04/14 07:42:59;;;;;;;3.15;2.15;;;18.80;95.30;;;;;;5052737;28;20032;-78
2022/04/14 07:45:27;;;;;;;3.30;1.63;;;19.10;95.20;;;;;;5038486;28;20040;-74
2022/04/14 07:47:55;;;;;;;4.85;2.28;;;19.10;94.90;;;;;;5071189;28;20040;-77
2022/04/14 07:50:22;;;;;;;2.75;2.03;;;19.00;94.80;;;;;;5070463;28;20056;-75
2022/04/14 07:52:56;;;;;;;4.25;2.30;;;19.20;94.70;;;;;;5053407;28;20044;-74
2022/04/14 07:55:28;;;;;;;5.10;2.10;;;19.30;94.50;;;;;;5054617;28;20067;-75
2022/04/14 07:57:57;;;;;;;4.32;2.15;;;19.20;94.20;;;;;;5037963;28;20572;-75
2022/04/14 08:00:26;;;;;;;3.30;2.20;;;19.10;94.40;;;;;;5070709;28;20040;-75
2022/04/14 08:02:59;;;;;;;8.45;1.98;;;18.90;94.60;;;;;;5072159;28;20048;-75
2022/04/14 08:05:36;;;;;;;6.75;2.38;;;18.60;95.20;;;;;;5091564;28;20051;-75
2022/04/14 08:08:04;;;;;;;;;;;18.70;95.10;;;;;;5074196;28;20494;-75
2022/04/14 08:10:32;;;;;;;4.57;1.90;;;18.80;95.00;;;;;;5073671;28;20015;-74
2022/04/14 08:13:00;;;;;;;3.70;1.77;;;18.90;94.70;;;;;;5057545;28;20051;-75
2022/04/14 08:15:29;;;;;;;4.13;2.05;;;19.20;94.60;;;;;;5057130;28;20048;-74
2022/04/14 08:17:57;;;;;;;4.25;2.17;;;19.30;94.00;;;;;;5073661;28;20048;-76
2022/04/14 08:20:25;;;;;;;4.78;2.15;;;19.50;93.10;;;;;;5056684;28;20056;-74
2022/04/14 08:22:58;;;;;;;4.60;2.45;;;19.80;93.00;;;;;;5040504;28;20739;-74
2022/04/14 08:25:32;;;;;;;3.88;1.88;;;19.70;92.30;;;;;;5056998;28;20497;-74
2022/04/14 08:28:03;;;;;;;4.25;1.77;;;19.90;92.70;;;;;;5073682;28;20144;-76
2022/04/14 08:30:33;;;;;;;3.55;1.98;;;20.10;92.60;;;;;;5053086;28;20052;-71
2022/04/14 08:33:05;;;;;;;3.53;2.17;;;19.80;92.30;;;;;;5020428;28;20182;-73
2022/04/14 08:35:33;;;;;;;3.33;2.03;;;19.60;92.30;;;;;;5053583;28;20055;-72
2022/04/14 08:38:08;;;;;;;2.80;1.75;;;19.40;93.00;;;;;;5071381;28;20043;-72
2022/04/14 08:40:39;;;;;;;4.28;2.40;;;19.40;92.50;;;;;;5035500;28;20115;-72
2022/04/14 08:43:17;;;;;;;2.28;1.67;;;19.40;92.30;;;;;;5053717;28;20113;-71
2022/04/14 08:45:48;;;;;;;4.78;2.22;;;19.30;92.90;;;;;;5053836;28;20123;-69
2022/04/14 08:48:17;;;;;;;3.10;1.90;;;19.60;93.00;;;;;;5036560;28;20083;-69
2022/04/14 08:50:46;;;;;;;6.68;2.17;;;19.70;92.60;;;;;;5070017;28;20052;-71
2022/04/14 08:53:14;;;;;;;3.97;1.90;;;19.70;92.20;;;;;;5020779;28;20048;-70
2022/04/14 08:55:42;;;;;;;4.32;2.70;;;20.00;92.20;;;;;;5053129;28;20051;-69
2022/04/14 08:58:15;;;;;;;4.95;2.30;;;20.20;91.90;;;;;;5036122;28;20078;-70
2022/04/14 09:00:43;;;;;;;4.05;2.53;;;20.40;91.60;;;;;;5070232;28;20045;-71
2022/04/14 09:03:19;;;;;;;4.82;2.15;;;20.30;91.10;;;;;;5021412;28;20152;-69
2022/04/14 09:05:47;;;;;;;4.45;2.05;;;20.10;91.50;;;;;;5036625;28;20044;-69
2022/04/14 09:08:14;;;;;;;4.30;2.25;;;19.90;92.30;;;;;;5020161;28;20055;-70
2022/04/14 09:10:42;;;;;;;3.05;2.05;;;19.90;92.40;;;;;;5036372;28;20143;-68
2022/04/14 09:13:13;;;;;;;3.35;2.00;;;20.00;92.20;;;;;;5036533;28;20157;-70
2022/04/14 09:15:41;;;;;;;2.67;1.95;;;19.90;92.10;;;;;;5036047;28;20111;-70
2022/04/14 09:18:09;;;;;;;4.45;2.30;;;19.80;92.30;;;;;;5053265;28;20048;-70
2022/04/14 09:20:40;;;;;;;3.58;2.13;;;19.80;92.50;;;;;;5019772;28;20052;-69
2022/04/14 09:23:27;;;;;;;4.75;3.03;;;20.10;92.30;;;;;;5053725;28;20044;-70
2022/04/14 09:25:55;;;;;;;;;;;20.30;91.60;;;;;;5036896;28;20051;-69
2022/04/14 09:28:22;;;;;;;5.78;2.72;;;20.30;91.50;;;;;;5052575;28;19924;-71
2022/04/14 09:31:02;;;;;;;5.43;2.63;;;20.10;91.60;;;;;;5070328;28;20051;-71
2022/04/14 09:33:32;;;;;;;4.55;2.30;;;20.00;91.50;;;;;;5036125;28;20071;-70
2022/04/14 09:36:10;;;;;;;5.22;2.00;;;20.30;91.60;;;;;;5052519;28;20045;-69
2022/04/14 09:38:56;;;;;;;3.70;2.08;;;20.30;91.50;;;;;;5036043;28;20063;-68
2022/04/14 09:41:37;;;;;;;4.13;2.20;;;20.40;91.70;;;;;;5052896;28;20044;-70
2022/04/14 09:44:13;;;;;;;3.10;2.40;;;20.70;91.60;;;;;;5070393;28;20053;-71
2022/04/14 09:46:45;;;;;;;3.13;1.98;;;21.10;91.60;;;;;;5035944;28;20045;-70
2022/04/14 09:49:17;;;;;;;4.22;2.08;;;21.10;91.90;;;;;;5052370;28;20125;-70
2022/04/14 09:51:47;;;;;;;3.67;2.10;;;20.90;90.80;;;;;;5052692;28;20136;-70
2022/04/14 09:54:27;;;;;;;5.63;2.35;;;20.70;91.40;;;;;;5052599;28;20082;-69
2022/04/14 09:56:56;;;;;;;5.95;1.98;;;20.50;91.10;;;;;;5036325;28;20056;-70
2022/04/14 09:59:28;;;;;;;3.47;1.90;;;20.70;90.80;;;;;;5035877;28;20051;-70
2022/04/14 10:02:16;;;;;;;3.80;2.03;;;20.70;90.70;;;;;;5051962;28;20406;-70
2022/04/14 10:04:47;;;;;;;4.22;2.95;;;20.90;90.70;;;;;;5035857;28;20048;-70
2022/04/14 10:07:20;;;;;;;3.90;2.58;;;20.90;90.30;;;;;;5052154;28;20040;-69
2022/04/14 10:09:50;;;;;;;4.82;2.20;;;21.10;90.40;;;;;;5070396;28;20048;-71
2022/04/14 10:12:18;;;;;;;3.25;1.98;;;21.10;90.60;;;;;;5041921;28;20143;-69
2022/04/14 10:15:04;;;;;;;4.15;2.20;;;21.30;90.40;;;;;;5039757;28;20055;-71
2022/04/14 10:17:38;;;;;;;5.07;2.05;;;21.10;90.00;;;;;;5072108;28;20075;-69
2022/04/14 10:20:12;;;;;;;5.25;2.63;;;20.90;90.10;;;;;;5038786;28;20052;-69
2022/04/14 10:22:40;;;;;;;3.28;2.67;;;20.90;90.50;;;;;;5054977;28;20051;-69
2022/04/14 10:25:08;;;;;;;5.72;2.40;;;20.70;90.30;;;;;;5055623;28;20501;-70
2022/04/14 10:27:37;;;;;;;4.80;1.90;;;20.20;90.40;;;;;;5073317;28;20174;-69
2022/04/14 10:30:06;;;;;;;3.55;2.38;;;20.30;91.10;;;;;;5076303;28;20050;-70
2022/04/14 10:32:34;;;;;;;4.07;2.00;;;20.50;91.10;;;;;;5075659;28;20619;-69
2022/04/14 10:35:05;;;;;;;3.75;1.95;;;20.30;91.00;;;;;;5076159;28;20040;-69
2022/04/14 10:37:50;;;;;;;5.05;2.33;;;20.20;91.30;;;;;;5042952;28;20048;-70
2022/04/14 10:40:17;;;;;;;5.25;1.98;;;20.60;91.20;;;;;;5059784;28;20055;-70
2022/04/14 10:42:49;;;;;;;5.13;2.08;;;20.90;90.90;;;;;;5093500;28;20044;-70
2022/04/14 10:45:18;;;;;;;2.95;2.10;;;21.10;90.10;;;;;;5059475;28;20146;-71
2022/04/14 10:47:54;;;;;;;10.68;2.60;;;20.80;89.80;;;;;;5075982;28;20048;-70
2022/04/14 10:50:30;;;;;;;4.90;2.17;;;20.80;90.10;;;;;;5058999;28;20436;-73
2022/04/14 10:53:17;;;;;;;7.55;1.75;;;20.60;90.20;;;;;;5075453;28;20054;-73
2022/04/14 10:55:47;;;;;;;4.35;2.13;;;20.60;90.30;;;;;;5058443;28;20136;-70
2022/04/14 10:58:27;;;;;;;3.20;2.03;;;20.80;90.20;;;;;;5074885;28;20128;-70
2022/04/14 11:00:56;;;;;;;3.78;2.25;;;21.10;90.10;;;;;;5075121;28;20043;-72
2022/04/14 11:03:49;;;;;;;4.78;1.90;;;21.10;88.60;;;;;;5057911;28;20056;-72
2022/04/14 11:06:43;;;;;;;4.85;1.98;;;20.90;85.30;;;;;;5074869;28;20549;-76
2022/04/14 11:09:45;;;;;;;3.47;1.80;;;20.70;85.10;;;;;;5057704;28;20040;-72
2022/04/14 11:12:24;;;;;;;4.97;2.00;;;20.80;85.50;;;;;;5055507;28;20772;-72
2022/04/14 11:15:04;;;;;;;3.55;2.58;;;20.70;84.20;;;;;;5054630;28;20056;-73
2022/04/14 11:17:37;;;;;;;7.85;1.95;;;20.80;84.60;;;;;;5054829;28;20376;-72
2022/04/14 11:20:16;;;;;;;4.55;2.05;;;20.90;84.30;;;;;;5037857;28;20045;-74
2022/04/14 11:23:13;;;;;;;5.07;2.10;;;21.10;84.10;;;;;;5038195;28;20537;-74
2022/04/14 11:25:48;;;;;;;4.38;1.92;;;21.20;84.30;;;;;;5021499;28;20044;-72
2022/04/14 11:28:31;;;;;;;3.75;1.95;;;21.30;84.50;;;;;;5037039;28;20070;-72
2022/04/14 11:31:22;;;;;;;5.20;2.22;;;21.20;84.70;;;;;;5054224;28;20044;-71
2022/04/14 11:33:52;;;;;;;2.88;1.67;;;21.50;84.50;;;;;;5054440;28;20040;-72
2022/04/14 11:36:38;;;;;;;2.60;1.60;;;21.50;80.50;;;;;;5054769;28;20486;-74
2022/04/14 11:39:23;;;;;;;3.85;1.90;;;21.60;81.10;;;;;;5037777;28;20049;-74
2022/04/14 11:42:07;;;;;;;3.58;1.95;;;21.90;80.40;;;;;;5054320;28;20063;-72
2022/04/14 11:44:35;;;;;;;3.47;2.05;;;21.90;80.10;;;;;;5054353;28;20055;-73
2022/04/14 11:47:07;;;;;;;6.43;2.40;;;22.00;80.10;;;;;;5037390;28;20049;-76
2022/04/14 11:49:35;;;;;;;2.85;1.73;;;22.10;80.90;;;;;;5054213;28;20123;-72
2022/04/14 11:52:05;;;;;;;5.40;2.35;;;22.10;81.50;;;;;;5036801;28;20057;-75
2022/04/14 11:54:35;;;;;;;6.47;3.55;;;22.00;82.50;;;;;;5053836;28;20048;-73
2022/04/14 11:57:13;;;;;;;5.50;1.90;;;22.10;83.40;;;;;;5053909;28;20133;-73
2022/04/14 11:59:41;;;;;;;;;;;22.10;82.80;;;;;;5037889;28;20055;-76
2022/04/14 12:02:11;;;;;;;3.70;2.80;;;21.90;83.10;;;;;;5020843;28;20391;-73
2022/04/14 12:04:47;;;;;;;6.97;2.65;;;22.00;83.60;;;;;;5053274;28;20052;-72
2022/04/14 12:07:16;;;;;;;5.97;3.00;;;21.60;83.80;;;;;;5070624;28;20048;-73
2022/04/14 12:09:45;;;;;;;3.70;2.70;;;21.40;84.60;;;;;;5057150;28;20574;-74
2022/04/14 12:12:17;;;;;;;4.35;2.80;;;21.30;85.10;;;;;;5039918;28;20044;-72
2022/04/14 12:14:50;;;;;;;5.30;3.17;;;21.30;85.40;;;;;;5073103;28;20043;-72
2022/04/14 12:17:22;;;;;;;4.45;2.95;;;21.40;85.90;;;;;;5040007;28;20052;-73
2022/04/14 12:19:54;;;;;;;3.72;2.85;;;21.50;85.60;;;;;;5073611;28;20051;-73
2022/04/14 12:22:24;;;;;;;3.78;2.53;;;21.60;85.80;;;;;;5056875;28;20524;-73
2022/04/14 12:24:56;;;;;;;6.82;3.35;;;21.70;86.00;;;;;;5039781;28;20051;-75
2022/04/14 12:27:28;;;;;;;4.72;2.40;;;21.80;86.40;;;;;;5056707;28;20142;-75
2022/04/14 12:30:03;;;;;;;8.07;2.92;;;21.90;86.00;;;;;;5073653;28;20677;-74
2022/04/14 12:32:31;;;;;;;4.20;2.63;;;22.00;86.40;;;;;;5056409;28;20047;-72
2022/04/14 12:34:59;;;;;;;4.68;2.83;;;22.10;86.80;;;;;;5056254;28;20047;-73
2022/04/14 12:37:37;;;;;;;6.07;3.15;;;22.00;87.00;;;;;;5073565;28;20448;-74
2022/04/14 12:40:13;;;;;;;5.10;2.85;;;22.10;87.50;;;;;;5056577;28;20052;-72
2022/04/14 12:42:43;;;;;;;5.05;2.20;;;22.10;87.80;;;;;;5057004;28;20078;-71
2022/04/14 12:45:17;;;;;;;4.45;2.47;;;22.20;87.30;;;;;;5040395;28;20052;-72
2022/04/14 12:47:47;;;;;;;4.90;2.20;;;22.30;87.40;;;;;;5055982;28;20055;-72
2022/04/14 12:50:20;;;;;;;3.88;2.53;;;22.30;89.80;;;;;;5054268;28;20476;-72
2022/04/14 12:52:58;;;;;;;5.40;2.38;;;22.30;90.40;;;;;;5056587;28;20048;-71
2022/04/14 12:55:28;;;;;;;3.83;1.95;;;22.20;90.70;;;;;;5073214;28;20055;-73
2022/04/14 12:58:13;;;;;;;3.85;2.13;;;22.10;88.50;;;;;;5072993;28;20052;-71
2022/04/14 13:00:41;;;;;;;5.05;3.78;;;21.90;91.10;;;;;;5055524;28;20052;-72
2022/04/14 13:03:16;;;;;;;4.35;2.40;;;21.60;91.20;;;;;;5038423;28;20064;-71